Time;durP1;ratioP1;P1;durP2;ratioP2;P2;SDS_P1;SDS_P2;PMS_P1;PMS_P2;Temp;Humidity;BMP_temperature;BMP_pressure;BME280_temperature;BME280_humidity;BME280_pressure;Samples;Min_cycle;Max_cycle;Signal;HPM_P1;HPM_P2
2022/08/03 00:00:46;;;;;;;3.60;0.82;;;25.10;85.00;;;;;;5033543;28;20388;-76
2022/08/03 00:03:11;;;;;;;4.00;1.20;;;25.10;85.30;;;;;;5033575;28;20111;-76
2022/08/03 00:05:37;;;;;;;5.88;1.40;;;25.10;85.60;;;;;;5033589;28;20550;-76
2022/08/03 00:08:03;;;;;;;4.70;1.15;;;25.10;85.90;;;;;;5033446;28;20025;-76
2022/08/03 00:10:29;;;;;;;4.25;1.00;;;25.00;86.20;;;;;;5033656;28;20440;-76
2022/08/03 00:12:54;;;;;;;6.93;0.95;;;25.00;86.40;;;;;;5033443;28;20026;-76
2022/08/03 00:15:20;;;;;;;8.70;0.85;;;25.00;86.70;;;;;;5033697;28;20109;-76
2022/08/03 00:17:45;;;;;;;4.45;0.90;;;25.00;86.80;;;;;;5033227;28;20017;-76
2022/08/03 00:20:11;;;;;;;6.75;1.55;;;25.00;87.00;;;;;;5033640;28;20030;-76
2022/08/03 00:22:37;;;;;;;6.78;1.25;;;24.90;87.00;;;;;;5033046;28;20045;-76
2022/08/03 00:25:03;;;;;;;5.13;0.90;;;24.90;87.20;;;;;;5033527;28;20469;-76
2022/08/03 00:27:29;;;;;;;4.13;0.73;;;24.90;87.40;;;;;;5033273;28;20041;-76
2022/08/03 00:29:54;;;;;;;3.30;1.00;;;24.90;87.60;;;;;;5033444;28;20100;-76
2022/08/03 00:32:20;;;;;;;4.13;1.10;;;24.80;87.70;;;;;;5033173;28;20022;-76
2022/08/03 00:34:45;;;;;;;5.30;0.90;;;24.80;87.90;;;;;;5033137;28;20079;-76
2022/08/03 00:37:11;;;;;;;5.82;1.80;;;24.80;88.00;;;;;;5032902;28;20057;-76
2022/08/03 00:39:36;;;;;;;4.53;1.25;;;24.80;88.00;;;;;;5033055;28;20120;-76
2022/08/03 00:42:03;;;;;;;7.93;1.90;;;24.80;88.00;;;;;;5033339;28;20026;-76
2022/08/03 00:44:29;;;;;;;6.53;1.60;;;24.80;88.00;;;;;;5035438;28;20033;-76
2022/08/03 00:46:54;;;;;;;7.10;1.48;;;24.70;87.90;;;;;;5037232;28;20481;-76
2022/08/03 00:49:20;;;;;;;3.45;1.42;;;24.70;88.00;;;;;;5037146;28;20057;-76
2022/08/03 00:51:46;;;;;;;5.43;1.40;;;24.70;88.10;;;;;;5037105;28;20048;-76
2022/08/03 00:54:12;;;;;;;4.18;0.98;;;24.60;88.00;;;;;;5037296;28;20418;-76
2022/08/03 00:56:39;;;;;;;5.30;1.08;;;24.50;88.20;;;;;;5037152;28;20116;-76
2022/08/03 00:59:05;;;;;;;4.18;1.10;;;24.50;88.30;;;;;;5037092;28;20101;-76
2022/08/03 01:01:31;;;;;;;7.43;1.00;;;24.50;88.30;;;;;;5037048;28;20500;-76
2022/08/03 01:03:56;;;;;;;3.13;1.00;;;24.50;88.40;;;;;;5036916;28;20025;-76
2022/08/03 01:06:44;;;;;;;4.45;1.30;;;24.50;88.40;;;;;;5037061;28;20376;-76
2022/08/03 01:09:25;;;;;;;6.07;1.25;;;24.50;88.70;;;;;;5037022;28;20021;-76
2022/08/03 01:12:06;;;;;;;8.00;1.20;;;24.50;88.60;;;;;;5037032;28;20025;-76
2022/08/03 01:14:49;;;;;;;4.20;1.00;;;24.50;88.70;;;;;;5037070;28;20025;-76
2022/08/03 01:17:30;;;;;;;4.68;1.17;;;24.50;88.80;;;;;;5036697;28;20052;-76
2022/08/03 01:20:13;;;;;;;4.00;1.00;;;24.50;88.90;;;;;;5036900;28;20037;-76
2022/08/03 01:22:48;;;;;;;3.17;0.98;;;24.40;88.90;;;;;;5036397;28;20292;-76
2022/08/03 01:25:35;;;;;;;5.43;1.20;;;24.40;88.90;;;;;;5036428;28;20092;-76
2022/08/03 01:28:24;;;;;;;5.50;1.02;;;24.40;89.00;;;;;;5036700;28;20026;-76
2022/08/03 01:30:54;;;;;;;8.35;1.05;;;24.30;89.10;;;;;;5036435;28;20038;-76
2022/08/03 01:33:25;;;;;;;5.88;1.30;;;24.30;89.20;;;;;;5036249;28;20112;-76
2022/08/03 01:35:58;;;;;;;6.47;0.98;;;24.20;89.30;;;;;;5036669;28;20429;-76
2022/08/03 01:38:31;;;;;;;3.30;1.20;;;24.20;89.50;;;;;;5036470;28;20037;-76
2022/08/03 01:41:00;;;;;;;3.15;0.82;;;24.20;89.60;;;;;;5036338;28;20029;-76
2022/08/03 01:43:29;;;;;;;5.97;1.00;;;24.20;89.80;;;;;;5036312;28;20091;-76
2022/08/03 01:45:56;;;;;;;5.60;0.98;;;24.10;89.80;;;;;;5036007;28;20025;-76
2022/08/03 01:48:22;;;;;;;5.38;1.08;;;24.10;89.90;;;;;;5036385;28;20128;-76
2022/08/03 01:50:49;;;;;;;4.32;0.90;;;24.10;90.00;;;;;;5035700;28;20120;-76
2022/08/03 01:53:17;;;;;;;7.03;1.20;;;24.10;90.00;;;;;;5036054;28;20108;-76
2022/08/03 01:55:45;;;;;;;7.30;1.17;;;24.10;90.00;;;;;;5035924;28;20052;-76
2022/08/03 01:58:13;;;;;;;6.80;1.23;;;24.10;90.00;;;;;;5036153;28;20021;-76
2022/08/03 02:00:41;;;;;;;8.50;1.17;;;24.00;90.00;;;;;;5035790;28;20483;-76
2022/08/03 02:03:09;;;;;;;10.85;1.67;;;24.00;90.10;;;;;;5035991;28;20099;-76
2022/08/03 02:05:37;;;;;;;4.28;0.70;;;24.00;90.20;;;;;;5035708;28;20171;-76
2022/08/03 02:08:04;;;;;;;5.20;1.13;;;24.00;90.20;;;;;;5035639;28;20030;-76
2022/08/03 02:10:30;;;;;;;6.47;1.10;;;24.00;90.20;;;;;;5035696;28;20052;-76
2022/08/03 02:12:58;;;;;;;4.10;0.70;;;24.00;90.10;;;;;;5035513;28;20026;-76
2022/08/03 02:15:25;;;;;;;3.08;0.70;;;24.00;90.10;;;;;;5035876;28;20100;-76
2022/08/03 02:17:53;;;;;;;3.90;1.15;;;24.00;90.00;;;;;;5035257;28;20064;-77
2022/08/03 02:20:20;;;;;;;4.47;0.70;;;24.00;90.00;;;;;;5035466;28;20034;-76
2022/08/03 02:22:46;;;;;;;5.38;1.10;;;24.10;90.00;;;;;;5035343;28;20136;-76
2022/08/03 02:25:13;;;;;;;4.05;0.77;;;24.10;89.80;;;;;;5035337;28;20049;-76
2022/08/03 02:27:51;;;;;;;2.65;0.93;;;24.10;89.80;;;;;;5035012;28;20113;-76
2022/08/03 02:30:19;;;;;;;4.00;0.80;;;24.10;89.70;;;;;;5035588;28;20116;-76
2022/08/03 02:32:56;;;;;;;3.95;0.90;;;24.10;89.70;;;;;;5035147;28;20489;-76
2022/08/03 02:35:24;;;;;;;2.65;0.77;;;24.10;89.70;;;;;;5035572;28;20032;-76
2022/08/03 02:37:54;;;;;;;3.10;0.65;;;24.10;89.80;;;;;;5035137;28;20087;-76
2022/08/03 02:40:23;;;;;;;7.07;0.90;;;24.10;89.80;;;;;;5035228;28;20064;-76
2022/08/03 02:42:51;;;;;;;3.20;0.90;;;24.00;89.80;;;;;;5035271;28;20033;-76
2022/08/03 02:45:19;;;;;;;6.50;1.00;;;24.00;89.70;;;;;;5035301;28;20030;-76
2022/08/03 02:47:45;;;;;;;5.90;0.80;;;24.00;89.70;;;;;;5035084;28;20021;-76
2022/08/03 02:50:13;;;;;;;4.65;1.02;;;24.00;89.80;;;;;;5034849;28;20102;-76
2022/08/03 02:52:40;;;;;;;7.82;1.52;;;24.00;90.20;;;;;;5034664;28;20021;-76
2022/08/03 02:55:09;;;;;;;6.10;1.00;;;24.00;90.20;;;;;;5034974;28;20030;-76
2022/08/03 02:57:36;;;;;;;4.78;1.00;;;24.00;90.00;;;;;;5035012;28;20025;-76
2022/08/03 03:00:03;;;;;;;6.95;1.42;;;23.90;90.00;;;;;;5034810;28;20524;-76
2022/08/03 03:02:29;;;;;;;5.05;1.27;;;24.00;90.10;;;;;;5034409;28;20030;-76
2022/08/03 03:04:55;;;;;;;8.80;1.10;;;23.90;90.10;;;;;;5034579;28;20121;-76
2022/08/03 03:07:21;;;;;;;7.43;1.20;;;23.90;90.10;;;;;;5033842;28;20030;-76
2022/08/03 03:09:48;;;;;;;4.57;0.80;;;23.90;90.20;;;;;;5034746;28;20080;-76
2022/08/03 03:12:16;;;;;;;5.85;1.30;;;23.90;90.20;;;;;;5034481;28;20025;-76
2022/08/03 03:14:41;;;;;;;8.68;1.63;;;23.90;90.10;;;;;;5034427;28;20469;-76
2022/08/03 03:17:10;;;;;;;5.03;1.05;;;23.90;90.20;;;;;;5034480;28;20029;-76
2022/08/03 03:19:37;;;;;;;4.75;1.27;;;23.90;90.20;;;;;;5034298;28;20037;-76
2022/08/03 03:22:06;;;;;;;4.75;1.00;;;23.80;90.30;;;;;;5034431;28;20120;-76
2022/08/03 03:24:33;;;;;;;4.80;0.90;;;23.80;90.30;;;;;;5034182;28;20040;-76
2022/08/03 03:26:59;;;;;;;8.32;1.70;;;23.80;90.30;;;;;;5034342;28;20442;-77
2022/08/03 03:29:25;;;;;;;4.68;1.23;;;23.80;90.50;;;;;;5034166;28;20061;-76
2022/08/03 03:31:51;;;;;;;7.50;1.38;;;23.70;90.60;;;;;;5034140;28;20120;-76
2022/08/03 03:34:17;;;;;;;7.75;1.63;;;23.70;90.60;;;;;;5034039;28;20056;-76
2022/08/03 03:36:43;;;;;;;7.78;1.58;;;23.70;90.70;;;;;;5034290;28;20026;-77
2022/08/03 03:39:09;;;;;;;5.57;1.73;;;23.70;90.70;;;;;;5033692;28;20354;-76
2022/08/03 03:41:35;;;;;;;5.45;1.23;;;23.70;90.80;;;;;;5033891;28;20496;-76
2022/08/03 03:44:01;;;;;;;5.32;1.52;;;23.70;90.80;;;;;;5033929;28;20026;-76
2022/08/03 03:46:27;;;;;;;3.20;0.90;;;23.70;90.80;;;;;;5033928;28;20029;-76
2022/08/03 03:48:53;;;;;;;6.10;1.80;;;23.80;90.80;;;;;;5033815;28;20044;-77
2022/08/03 03:51:18;;;;;;;4.70;1.67;;;23.70;90.80;;;;;;5033890;28;20071;-75
2022/08/03 03:54:01;;;;;;;5.35;1.90;;;23.70;90.80;;;;;;5033994;28;20068;-75
2022/08/03 03:56:27;;;;;;;4.95;1.83;;;23.70;90.90;;;;;;5033791;28;20104;-75
2022/08/03 03:58:55;;;;;;;6.80;1.77;;;23.70;91.00;;;;;;5033690;28;20113;-75
2022/08/03 04:01:20;;;;;;;7.10;1.92;;;23.60;91.00;;;;;;5033484;28;20033;-75
2022/08/03 04:03:46;;;;;;;10.23;2.10;;;23.60;91.10;;;;;;5033866;28;20089;-75
2022/08/03 04:11:52;;;;;;;4.35;1.75;;;23.50;91.40;;;;;;5033295;28;20451;-76
2022/08/03 04:14:27;;;;;;;9.43;1.92;;;23.50;91.50;;;;;;5033691;28;20018;-76
2022/08/03 04:16:58;;;;;;;6.25;1.70;;;23.50;91.50;;;;;;5033645;28;20029;-76
2022/08/03 04:19:29;;;;;;;7.65;1.38;;;23.50;91.50;;;;;;5033530;28;20085;-76
2022/08/03 04:21:59;;;;;;;9.60;1.60;;;23.50;91.60;;;;;;5033298;28;20043;-76
2022/08/03 04:24:42;;;;;;;6.28;2.10;;;23.50;91.60;;;;;;5033202;28;20627;-76
2022/08/03 04:27:10;;;;;;;8.88;1.60;;;23.50;91.70;;;;;;5033552;28;20030;-76
2022/08/03 04:29:40;;;;;;;4.68;1.17;;;23.40;91.70;;;;;;5033522;28;20099;-76
2022/08/03 04:32:06;;;;;;;6.05;1.63;;;23.40;91.70;;;;;;5033244;28;20045;-76
2022/08/03 04:34:32;;;;;;;5.05;1.50;;;23.40;91.80;;;;;;5033176;28;20033;-75
2022/08/03 04:37:00;;;;;;;5.47;1.73;;;23.40;91.90;;;;;;5033074;28;20025;-76
2022/08/03 04:39:29;;;;;;;7.28;2.30;;;23.40;91.90;;;;;;5033083;28;20480;-75
2022/08/03 04:42:00;;;;;;;6.90;1.98;;;23.40;92.00;;;;;;5033098;28;20554;-76
2022/08/03 04:44:27;;;;;;;6.78;2.08;;;23.40;92.10;;;;;;5032869;28;20045;-76
2022/08/03 04:46:53;;;;;;;6.32;2.10;;;23.40;92.20;;;;;;5032838;28;20025;-75
2022/08/03 04:49:20;;;;;;;9.85;2.70;;;23.40;92.20;;;;;;5032888;28;20033;-75
2022/08/03 04:51:46;;;;;;;9.10;2.65;;;23.40;92.30;;;;;;5032872;28;20045;-75
2022/08/03 04:54:12;;;;;;;9.23;2.90;;;23.30;92.30;;;;;;5033011;28;20104;-75
2022/08/03 04:56:43;;;;;;;9.88;2.58;;;23.30;92.40;;;;;;5032981;28;20022;-75
2022/08/03 04:59:09;;;;;;;9.00;2.90;;;23.20;92.50;;;;;;5032489;28;20057;-75
2022/08/03 05:01:35;;;;;;;6.55;3.75;;;23.10;92.50;;;;;;5033023;28;20185;-76
2022/08/03 05:04:01;;;;;;;10.57;4.07;;;23.10;92.70;;;;;;5032974;28;20021;-75
2022/08/03 05:06:26;;;;;;;8.95;3.50;;;23.10;92.90;;;;;;5032851;28;20030;-75
2022/08/03 05:08:52;;;;;;;7.80;3.35;;;23.00;93.00;;;;;;5032712;28;20381;-75
2022/08/03 05:11:18;;;;;;;9.73;3.58;;;22.90;93.00;;;;;;5032537;28;20063;-75
2022/08/03 05:13:44;;;;;;;8.82;3.63;;;22.90;93.10;;;;;;5032697;28;20068;-75
2022/08/03 05:16:10;;;;;;;7.15;3.28;;;22.80;93.30;;;;;;5032624;28;20037;-75
2022/08/03 05:18:39;;;;;;;13.93;4.90;;;22.80;93.30;;;;;;5032543;28;20060;-75
2022/08/03 05:21:05;;;;;;;10.70;3.83;;;22.80;93.40;;;;;;5032505;28;20056;-75
2022/08/03 05:23:30;;;;;;;6.65;3.00;;;22.70;93.50;;;;;;5032237;28;20049;-74
2022/08/03 05:25:56;;;;;;;10.32;3.47;;;22.70;93.60;;;;;;5032498;28;20053;-75
2022/08/03 05:28:22;;;;;;;12.02;4.03;;;22.70;93.60;;;;;;5032741;28;20080;-75
2022/08/03 05:30:47;;;;;;;12.77;3.85;;;22.80;94.00;;;;;;5035071;28;20037;-76
2022/08/03 05:33:13;;;;;;;13.85;3.75;;;22.70;93.80;;;;;;5036355;28;20079;-76
2022/08/03 05:35:39;;;;;;;15.30;4.80;;;22.70;93.80;;;;;;5036108;28;20489;-77
2022/08/03 05:38:05;;;;;;;13.00;4.05;;;22.70;93.90;;;;;;5036150;28;20037;-77
2022/08/03 05:40:31;;;;;;;10.07;3.97;;;22.60;93.90;;;;;;5036408;28;20033;-77
2022/08/03 05:42:57;;;;;;;9.85;3.67;;;22.70;94.00;;;;;;5036092;28;20083;-77
2022/08/03 05:45:24;;;;;;;11.32;3.70;;;22.70;94.00;;;;;;5035995;28;20029;-77
2022/08/03 05:47:50;;;;;;;8.05;3.70;;;22.70;94.00;;;;;;5035933;28;20060;-77
2022/08/03 05:50:17;;;;;;;10.23;3.75;;;22.70;94.10;;;;;;5035932;28;20037;-77
2022/08/03 05:52:43;;;;;;;8.70;3.40;;;22.70;94.10;;;;;;5036018;28;20111;-77
2022/08/03 05:55:10;;;;;;;11.20;4.20;;;22.80;94.10;;;;;;5035638;28;20465;-77
2022/08/03 05:57:36;;;;;;;10.93;4.10;;;22.80;94.20;;;;;;5036210;28;20025;-77
2022/08/03 06:00:08;;;;;;;10.65;3.42;;;22.80;94.20;;;;;;5035667;28;20030;-77
2022/08/03 06:02:34;;;;;;;6.13;3.50;;;22.70;94.20;;;;;;5035655;28;20026;-77
2022/08/03 06:04:59;;;;;;;15.63;4.05;;;22.70;94.20;;;;;;5035796;28;20272;-77
2022/08/03 06:07:25;;;;;;;9.50;4.47;;;22.80;94.20;;;;;;5035509;28;20838;-77
2022/08/03 06:09:51;;;;;;;9.45;3.58;;;22.80;94.60;;;;;;5035119;28;20040;-77
2022/08/03 06:12:16;;;;;;;10.25;3.03;;;22.80;94.30;;;;;;5035409;28;20033;-75
2022/08/03 06:14:42;;;;;;;13.35;3.20;;;22.80;94.30;;;;;;5035369;28;20021;-75
2022/08/03 06:17:08;;;;;;;9.73;2.90;;;22.80;94.30;;;;;;5035515;28;20029;-74
2022/08/03 06:19:33;;;;;;;9.25;2.88;;;22.80;94.20;;;;;;5035355;28;20381;-75
2022/08/03 06:21:59;;;;;;;8.02;2.60;;;22.90;94.20;;;;;;5035330;28;20042;-75
2022/08/03 06:24:24;;;;;;;11.40;2.53;;;22.90;94.10;;;;;;5035343;28;20029;-75
2022/08/03 06:26:50;;;;;;;12.98;2.90;;;22.80;94.30;;;;;;5035257;28;20097;-75
2022/08/03 06:29:16;;;;;;;8.77;2.55;;;22.80;94.00;;;;;;5035076;28;20388;-75
2022/08/03 06:31:41;;;;;;;10.20;2.80;;;22.80;94.00;;;;;;5035160;28;20041;-76
2022/08/03 06:34:07;;;;;;;8.73;2.60;;;22.90;94.00;;;;;;5035202;28;20021;-75
2022/08/03 06:36:32;;;;;;;11.82;2.92;;;22.90;93.80;;;;;;5035245;28;20022;-75
2022/08/03 06:38:59;;;;;;;11.15;2.92;;;23.00;93.70;;;;;;5035061;28;20048;-75
2022/08/03 06:41:25;;;;;;;10.90;3.05;;;23.00;93.70;;;;;;5034050;28;20022;-75
2022/08/03 06:43:51;;;;;;;11.05;3.08;;;23.10;93.50;;;;;;5035116;28;20087;-75
2022/08/03 06:46:16;;;;;;;9.10;3.05;;;23.10;93.50;;;;;;5035026;28;20030;-75
2022/08/03 06:48:42;;;;;;;10.70;2.50;;;23.10;93.60;;;;;;5034991;28;20060;-75
2022/08/03 06:51:09;;;;;;;12.95;3.05;;;23.20;93.50;;;;;;5034935;28;20034;-75
2022/08/03 06:53:34;;;;;;;15.88;3.60;;;23.10;93.40;;;;;;5034685;28;20033;-75
2022/08/03 06:56:00;;;;;;;14.13;3.50;;;23.10;93.30;;;;;;5035006;28;20494;-75
2022/08/03 06:58:25;;;;;;;12.02;3.13;;;23.20;93.40;;;;;;5034325;28;20025;-75
2022/08/03 07:00:51;;;;;;;9.75;2.53;;;23.30;93.30;;;;;;5034758;28;20025;-75
2022/08/03 07:03:17;;;;;;;12.30;3.13;;;23.30;93.20;;;;;;5034718;28;20030;-76
2022/08/03 07:05:45;;;;;;;16.45;3.08;;;23.30;93.20;;;;;;5034460;28;20022;-76
2022/08/03 07:08:11;;;;;;;10.90;2.92;;;23.40;93.10;;;;;;5034232;28;20030;-77
2022/08/03 07:10:36;;;;;;;14.98;2.45;;;23.40;92.90;;;;;;5034577;28;20080;-76
2022/08/03 07:13:03;;;;;;;13.70;2.65;;;23.50;92.90;;;;;;5034120;28;20455;-76
2022/08/03 07:15:29;;;;;;;13.48;3.15;;;23.60;92.90;;;;;;5034478;28;20033;-76
2022/08/03 07:17:55;;;;;;;14.60;3.20;;;23.70;93.00;;;;;;5034117;28;20025;-76
2022/08/03 07:20:21;;;;;;;12.20;2.60;;;23.70;92.50;;;;;;5034279;28;20341;-76
2022/08/03 07:22:46;;;;;;;9.90;2.53;;;23.80;92.50;;;;;;5033941;28;20056;-76
2022/08/03 07:25:12;;;;;;;12.45;2.50;;;23.80;92.40;;;;;;5034247;28;20025;-76
2022/08/03 07:27:41;;;;;;;12.70;2.33;;;23.80;91.90;;;;;;5034408;28;20041;-76
2022/08/03 07:30:08;;;;;;;12.30;1.92;;;23.90;91.90;;;;;;5034245;28;20048;-76
2022/08/03 07:32:34;;;;;;;13.63;2.20;;;23.90;91.70;;;;;;5034187;28;20029;-76
2022/08/03 07:35:00;;;;;;;12.63;2.58;;;23.90;91.70;;;;;;5033964;28;20108;-76
2022/08/03 07:37:25;;;;;;;11.13;2.17;;;23.90;91.80;;;;;;5034157;28;20055;-76
2022/08/03 07:39:51;;;;;;;11.45;1.90;;;24.00;91.60;;;;;;5033817;28;20025;-76
2022/08/03 07:42:16;;;;;;;10.25;1.67;;;24.10;91.40;;;;;;5034302;28;20030;-76
2022/08/03 07:44:42;;;;;;;12.82;2.13;;;24.10;91.40;;;;;;5034123;28;20032;-76
2022/08/03 07:47:08;;;;;;;11.15;2.60;;;24.20;91.30;;;;;;5033894;28;20057;-77
2022/08/03 07:49:37;;;;;;;13.15;2.58;;;24.30;91.10;;;;;;5033504;28;20037;-76
2022/08/03 07:54:47;;;;;;;15.82;2.10;;;24.30;90.90;;;;;;5033580;28;20430;-76
2022/08/03 07:57:12;;;;;;;9.60;1.92;;;24.40;90.60;;;;;;5033853;28;20025;-77
2022/08/03 07:59:38;;;;;;;9.93;1.92;;;24.40;90.60;;;;;;5033897;28;20026;-77
2022/08/03 08:02:05;;;;;;;11.50;2.05;;;24.40;90.80;;;;;;5033442;28;20101;-76
2022/08/03 08:04:31;;;;;;;16.38;1.85;;;24.60;90.70;;;;;;5033579;28;20025;-77
2022/08/03 08:06:57;;;;;;;15.40;2.05;;;24.70;90.70;;;;;;5033524;28;20029;-76
2022/08/03 08:09:22;;;;;;;10.10;1.50;;;24.80;90.60;;;;;;5033294;28;20022;-77
2022/08/03 08:11:48;;;;;;;10.75;1.65;;;24.90;90.40;;;;;;5033758;28;20036;-77
2022/08/03 08:14:14;;;;;;;10.13;2.05;;;25.00;90.20;;;;;;5033707;28;20021;-77
2022/08/03 08:16:39;;;;;;;11.10;2.17;;;25.10;90.10;;;;;;5033385;28;20421;-77
2022/08/03 08:19:05;;;;;;;16.65;1.83;;;25.20;89.90;;;;;;5033366;28;20059;-77
2022/08/03 08:21:31;;;;;;;15.65;1.83;;;25.30;89.40;;;;;;5033333;28;20132;-77
2022/08/03 08:23:56;;;;;;;13.48;2.00;;;25.40;89.00;;;;;;5032837;28;20054;-77
2022/08/03 08:26:22;;;;;;;9.30;1.70;;;25.40;88.70;;;;;;5033583;28;20033;-76
2022/08/03 08:28:47;;;;;;;10.70;2.15;;;25.50;88.40;;;;;;5033478;28;20072;-76
2022/08/03 08:31:13;;;;;;;13.77;1.90;;;25.60;87.90;;;;;;5033269;28;20041;-76
2022/08/03 08:33:39;;;;;;;12.15;1.85;;;25.70;87.50;;;;;;5033209;28;20377;-76
2022/08/03 08:36:04;;;;;;;12.73;2.00;;;25.80;86.90;;;;;;5033489;28;20033;-76
2022/08/03 08:38:30;;;;;;;14.40;2.55;;;25.90;86.70;;;;;;5033225;28;20423;-76
2022/08/03 08:40:56;;;;;;;13.13;2.00;;;26.00;86.70;;;;;;5033317;28;20032;-77
2022/08/03 08:43:21;;;;;;;12.35;1.67;;;26.10;86.60;;;;;;5032779;28;20353;-76
2022/08/03 08:45:52;;;;;;;18.00;2.42;;;26.20;85.50;;;;;;5033116;28;20025;-76
2022/08/03 08:48:24;;;;;;;16.77;2.20;;;26.30;85.20;;;;;;5033319;28;20021;-77
2022/08/03 08:50:55;;;;;;;18.67;2.55;;;26.40;84.50;;;;;;5032871;28;20128;-77
2022/08/03 08:53:21;;;;;;;15.60;2.20;;;26.40;83.50;;;;;;5032915;28;20061;-77
2022/08/03 08:55:48;;;;;;;15.85;2.03;;;26.50;83.90;;;;;;5032914;28;20037;-77
2022/08/03 08:58:15;;;;;;;15.88;2.80;;;26.60;83.10;;;;;;5033186;28;20108;-77
2022/08/03 09:00:44;;;;;;;17.60;2.35;;;26.70;83.70;;;;;;5032807;28;20029;-77
2022/08/03 09:03:10;;;;;;;16.20;2.17;;;26.80;82.20;;;;;;5032872;28;20473;-77
2022/08/03 09:05:37;;;;;;;13.52;2.10;;;26.90;82.00;;;;;;5034707;28;20021;-77
2022/08/03 09:08:05;;;;;;;13.85;2.10;;;27.00;81.20;;;;;;5037052;28;20083;-76
2022/08/03 09:10:30;;;;;;;15.00;2.40;;;27.10;80.80;;;;;;5036873;28;20048;-76
2022/08/03 09:12:56;;;;;;;17.65;3.13;;;27.10;80.10;;;;;;5036849;28;20100;-76
2022/08/03 09:15:23;;;;;;;12.50;2.00;;;27.10;79.00;;;;;;5036630;28;20056;-76
2022/08/03 09:17:51;;;;;;;12.82;2.08;;;27.20;79.60;;;;;;5036220;28;20389;-76
2022/08/03 09:20:18;;;;;;;13.05;2.22;;;27.20;79.60;;;;;;5036669;28;20022;-76
2022/08/03 09:23:01;;;;;;;15.77;2.17;;;27.30;79.10;;;;;;5036378;28;20049;-76
2022/08/03 09:25:38;;;;;;;17.98;2.33;;;27.40;78.50;;;;;;5036614;28;20096;-76
2022/08/03 09:28:15;;;;;;;15.30;2.42;;;27.40;77.40;;;;;;5036333;28;20026;-76
2022/08/03 09:30:44;;;;;;;18.15;2.40;;;27.40;77.50;;;;;;5036382;28;20037;-77
2022/08/03 09:33:15;;;;;;;17.88;2.45;;;27.50;77.20;;;;;;5036358;28;20392;-77
2022/08/03 09:35:46;;;;;;;15.63;1.85;;;27.60;77.00;;;;;;5036593;28;20053;-77
2022/08/03 09:38:14;;;;;;;16.02;2.20;;;27.70;76.20;;;;;;5036202;28;20438;-77
2022/08/03 09:40:40;;;;;;;17.48;2.15;;;27.80;76.20;;;;;;5036084;28;20542;-77
2022/08/03 09:43:07;;;;;;;14.40;1.98;;;27.80;75.50;;;;;;5036357;28;20026;-77
2022/08/03 09:45:34;;;;;;;16.05;2.08;;;27.90;75.60;;;;;;5036314;28;20056;-77
2022/08/03 09:48:26;;;;;;;13.88;2.78;;;27.90;75.10;;;;;;5036135;28;20025;-77
2022/08/03 09:50:57;;;;;;;17.33;2.55;;;28.00;75.20;;;;;;5035985;28;20448;-77
2022/08/03 09:53:23;;;;;;;14.63;2.80;;;28.20;74.80;;;;;;5036138;28;20124;-77
2022/08/03 09:55:50;;;;;;;14.35;2.10;;;28.20;74.30;;;;;;5036167;28;20124;-77
2022/08/03 09:58:15;;;;;;;21.88;1.73;;;28.30;74.30;;;;;;5035507;28;20381;-77
2022/08/03 10:00:57;;;;;;;20.65;2.60;;;28.40;73.50;;;;;;5036086;28;20030;-77
2022/08/03 10:03:24;;;;;;;20.15;2.63;;;28.50;73.30;;;;;;5036037;28;20023;-77
2022/08/03 10:05:50;;;;;;;15.07;2.65;;;28.60;73.30;;;;;;5035996;28;20053;-77
2022/08/03 10:08:17;;;;;;;16.92;2.58;;;28.60;72.30;;;;;;5035709;28;20052;-77
2022/08/03 10:10:45;;;;;;;14.10;2.05;;;28.60;72.00;;;;;;5035841;28;20040;-77
2022/08/03 10:13:15;;;;;;;18.35;2.83;;;28.50;72.40;;;;;;5035596;28;20068;-77
2022/08/03 10:15:41;;;;;;;19.17;2.17;;;28.60;72.50;;;;;;5035170;28;20029;-78
2022/08/03 10:18:07;;;;;;;15.77;2.03;;;28.50;72.70;;;;;;5034187;28;20112;-81
2022/08/03 10:20:39;;;;;;;14.30;2.47;;;28.60;72.90;;;;;;5035115;28;20033;-78
2022/08/03 10:23:07;;;;;;;14.07;2.13;;;28.60;73.20;;;;;;5034735;28;20377;-78
2022/08/03 10:25:35;;;;;;;15.38;2.65;;;28.70;73.10;;;;;;5034451;28;20033;-78
2022/08/03 10:28:06;;;;;;;18.42;2.28;;;28.90;72.50;;;;;;5034604;28;20045;-78
2022/08/03 10:30:32;;;;;;;15.05;2.35;;;29.10;71.90;;;;;;5033990;28;20077;-78
2022/08/03 10:33:06;;;;;;;15.93;2.35;;;29.10;70.50;;;;;;5033961;28;20083;-78
2022/08/03 10:35:32;;;;;;;16.65;2.55;;;29.20;69.90;;;;;;5034158;28;20104;-78
2022/08/03 10:38:01;;;;;;;15.95;2.05;;;29.20;69.70;;;;;;5034218;28;20068;-78
2022/08/03 10:40:29;;;;;;;19.10;2.55;;;29.20;69.40;;;;;;5033777;28;20097;-78
2022/08/03 10:43:17;;;;;;;16.60;3.03;;;29.30;69.60;;;;;;5034336;28;20025;-78
2022/08/03 10:45:44;;;;;;;13.20;1.85;;;29.30;68.40;;;;;;5033410;28;20034;-78
2022/08/03 10:48:11;;;;;;;17.75;1.95;;;29.40;68.60;;;;;;5034014;28;20442;-78
2022/08/03 10:50:37;;;;;;;15.70;1.73;;;29.50;68.80;;;;;;5034160;28;20040;-78
2022/08/03 10:53:05;;;;;;;16.25;2.28;;;29.60;68.30;;;;;;5033913;28;20017;-78
2022/08/03 10:58:35;;;;;;;11.35;2.00;;;29.80;68.00;;;;;;5034034;28;20040;-78
2022/08/03 11:01:02;;;;;;;14.73;2.00;;;30.00;67.10;;;;;;5033579;28;20059;-78
2022/08/03 11:03:27;;;;;;;11.43;1.90;;;30.10;66.90;;;;;;5033604;28;20029;-78
2022/08/03 11:06:19;;;;;;;13.65;2.00;;;30.20;66.10;;;;;;5033655;28;20044;-78
2022/08/03 11:09:08;;;;;;;15.85;2.53;;;30.30;65.30;;;;;;5033967;28;20039;-78
2022/08/03 11:11:42;;;;;;;13.00;2.28;;;30.30;64.40;;;;;;5033357;28;20477;-78
2022/08/03 11:14:10;;;;;;;13.48;2.33;;;30.20;64.20;;;;;;5033370;28;20392;-78
2022/08/03 11:16:37;;;;;;;11.98;1.95;;;30.30;65.00;;;;;;5033404;28;20029;-78
2022/08/03 11:19:05;;;;;;;15.27;1.90;;;30.40;65.30;;;;;;5033615;28;20032;-78
2022/08/03 11:24:38;;;;;;;12.18;2.00;;;30.50;63.90;;;;;;5070287;28;20402;-78
2022/08/03 11:27:23;;;;;;;15.27;2.28;;;30.50;63.70;;;;;;5070406;28;20102;-78
2022/08/03 11:29:57;;;;;;;11.52;2.33;;;30.50;62.80;;;;;;5070189;28;20119;-78
2022/08/03 11:32:44;;;;;;;12.25;1.52;;;30.60;61.70;;;;;;5070241;28;20396;-78
2022/08/03 11:35:27;;;;;;;12.05;2.08;;;30.60;61.90;;;;;;5070355;28;20491;-78
2022/08/03 11:37:55;;;;;;;15.13;2.70;;;30.70;62.60;;;;;;5070340;28;20085;-78
2022/08/03 11:40:48;;;;;;;18.38;2.97;;;30.90;62.50;;;;;;5070364;28;20067;-78
2022/08/03 11:43:26;;;;;;;;;;;30.90;62.30;;;;;;5070581;28;20039;-78
2022/08/03 11:45:57;;;;;;;15.05;1.98;;;30.90;62.30;;;;;;5070119;28;19905;-78
2022/08/03 11:48:27;;;;;;;15.45;1.77;;;31.00;61.20;;;;;;5070315;28;20024;-78
2022/08/03 11:50:52;;;;;;;13.32;2.00;;;31.10;58.40;;;;;;5070295;28;20036;-78
2022/08/03 11:53:18;;;;;;;11.15;1.45;;;31.00;57.90;;;;;;5070025;28;20491;-78
2022/08/03 11:55:48;;;;;;;16.88;2.22;;;31.10;58.30;;;;;;5070188;28;20081;-78
2022/08/03 11:58:18;;;;;;;8.20;1.23;;;31.10;57.50;;;;;;5069915;28;20017;-78
2022/08/03 12:00:44;;;;;;;11.23;1.58;;;31.20;58.20;;;;;;5069654;28;20573;-78
2022/08/03 12:03:13;;;;;;;11.35;1.85;;;31.30;57.20;;;;;;5070013;28;20068;-78
2022/08/03 12:05:47;;;;;;;15.20;2.00;;;31.30;56.80;;;;;;5070077;28;20021;-78
2022/08/03 12:08:34;;;;;;;8.80;1.48;;;31.40;56.80;;;;;;5069477;28;20056;-78
2022/08/03 12:11:05;;;;;;;10.93;1.67;;;31.40;56.40;;;;;;5069187;28;20063;-78
2022/08/03 12:13:46;;;;;;;16.02;1.95;;;31.40;57.30;;;;;;5069790;28;20094;-78
2022/08/03 12:16:23;;;;;;;10.05;1.55;;;31.40;55.30;;;;;;5069797;28;20021;-78
2022/08/03 12:19:00;;;;;;;13.93;2.05;;;31.40;56.20;;;;;;5069472;28;20092;-78
2022/08/03 12:21:26;;;;;;;10.55;1.42;;;31.50;56.60;;;;;;5069302;28;20025;-78
2022/08/03 12:24:03;;;;;;;11.73;1.35;;;31.60;56.40;;;;;;5069128;28;20045;-78
2022/08/03 12:26:47;;;;;;;13.45;2.10;;;31.70;56.20;;;;;;5069235;28;20415;-78
2022/08/03 12:29:20;;;;;;;10.15;1.10;;;31.80;55.60;;;;;;5069312;28;20024;-78
2022/08/03 12:31:46;;;;;;;12.95;1.83;;;31.80;55.80;;;;;;5069089;28;20051;-78
2022/08/03 12:34:12;;;;;;;14.20;1.90;;;31.80;56.00;;;;;;5063526;28;20468;-78
2022/08/03 12:36:49;;;;;;;11.63;2.00;;;31.90;55.50;;;;;;5056275;28;20029;-78
2022/08/03 12:39:15;;;;;;;9.43;1.80;;;32.00;55.40;;;;;;5056147;28;20021;-78
2022/08/03 12:41:41;;;;;;;11.05;1.30;;;32.10;53.40;;;;;;5055700;28;20166;-78
2022/08/03 12:44:07;;;;;;;9.77;1.55;;;32.10;53.20;;;;;;5055728;28;20056;-78
2022/08/03 12:46:35;;;;;;;7.93;1.20;;;32.10;53.70;;;;;;5055737;28;20111;-78
2022/08/03 12:49:05;;;;;;;11.45;1.80;;;32.20;54.20;;;;;;5055810;28;20060;-78
2022/08/03 12:51:51;;;;;;;15.15;1.92;;;32.20;54.90;;;;;;5055620;28;20044;-78
2022/08/03 12:54:28;;;;;;;11.40;1.60;;;32.40;53.00;;;;;;5051486;28;20037;-80
2022/08/03 12:57:11;;;;;;;9.60;1.00;;;32.40;52.50;;;;;;5055812;28;20046;-79
2022/08/03 12:59:42;;;;;;;8.40;1.58;;;32.50;52.70;;;;;;5055157;28;20075;-79
2022/08/03 13:02:16;;;;;;;8.18;1.30;;;32.50;52.50;;;;;;5055458;28;20040;-80
2022/08/03 13:04:42;;;;;;;9.23;1.25;;;32.60;52.20;;;;;;5055439;28;20497;-78